sensor_id;sensor_type;location;lat;lon;timestamp;pressure;altitude;pressure_sealevel;temperature;humidity
70968;BME280;58629;48.808;8.820;2023-12-20T00:01:18;97109.91;;;4.22;100.00
70968;BME280;58629;48.808;8.820;2023-12-20T00:03:43;97113.66;;;4.21;100.00
70968;BME280;58629;48.808;8.820;2023-12-20T00:06:09;97105.81;;;4.21;100.00
70968;BME280;58629;48.808;8.820;2023-12-20T00:08:34;97104.28;;;4.20;100.00
70968;BME280;58629;48.808;8.820;2023-12-20T00:11:00;97098.28;;;4.20;100.00
70968;BME280;58629;48.808;8.820;2023-12-20T00:13:25;97098.28;;;4.20;100.00
70968;BME280;58629;48.808;8.820;2023-12-20T00:15:51;97093.41;;;4.18;100.00
70968;BME280;58629;48.808;8.820;2023-12-20T00:18:17;97093.78;;;4.17;100.00
70968;BME280;58629;48.808;8.820;2023-12-20T00:20:42;97081.44;;;4.14;100.00
70968;BME280;58629;48.808;8.820;2023-12-20T00:23:08;97085.13;;;4.09;100.00
70968;BME280;58629;48.808;8.820;2023-12-20T00:25:34;97075.34;;;4.03;100.00
70968;BME280;58629;48.808;8.820;2023-12-20T00:28:00;97082.44;;;4.02;100.00
70968;BME280;58629;48.808;8.820;2023-12-20T00:30:25;97071.56;;;3.97;100.00
70968;BME280;58629;48.808;8.820;2023-12-20T00:32:50;97074.91;;;3.94;100.00
70968;BME280;58629;48.808;8.820;2023-12-20T00:35:16;97076.38;;;3.91;100.00
70968;BME280;58629;48.808;8.820;2023-12-20T00:37:42;97078.59;;;3.86;100.00
70968;BME280;58629;48.808;8.820;2023-12-20T00:40:08;97071.84;;;3.85;100.00
70968;BME280;58629;48.808;8.820;2023-12-20T00:42:35;97077.09;;;3.88;100.00
70968;BME280;58629;48.808;8.820;2023-12-20T00:45:01;97078.22;;;3.87;100.00
70968;BME280;58629;48.808;8.820;2023-12-20T00:47:26;97068.91;;;3.90;100.00
70968;BME280;58629;48.808;8.820;2023-12-20T00:49:52;97073.78;;;3.91;100.00
70968;BME280;58629;48.808;8.820;2023-12-20T00:52:18;97076.38;;;3.91;100.00
70968;BME280;58629;48.808;8.820;2023-12-20T00:54:43;97075.38;;;4.06;100.00
70968;BME280;58629;48.808;8.820;2023-12-20T00:57:09;97072.00;;;4.06;100.00
70968;BME280;58629;48.808;8.820;2023-12-20T00:59:34;97066.38;;;4.04;100.00
70968;BME280;58629;48.808;8.820;2023-12-20T01:02:00;97070.50;;;4.08;100.00
70968;BME280;58629;48.808;8.820;2023-12-20T01:04:25;97069.13;;;4.25;100.00
70968;BME280;58629;48.808;8.820;2023-12-20T01:06:51;97074.84;;;4.45;100.00
70968;BME280;58629;48.808;8.820;2023-12-20T01:09:17;97072.63;;;4.50;100.00
70968;BME280;58629;48.808;8.820;2023-12-20T01:11:43;97079.78;;;4.60;100.00
70968;BME280;58629;48.808;8.820;2023-12-20T01:14:09;97082.16;;;4.90;100.00
70968;BME280;58629;48.808;8.820;2023-12-20T01:16:34;97079.25;;;5.09;100.00
70968;BME280;58629;48.808;8.820;2023-12-20T01:19:00;97075.19;;;5.33;100.00
70968;BME280;58629;48.808;8.820;2023-12-20T01:21:25;97080.81;;;5.38;100.00
70968;BME280;58629;48.808;8.820;2023-12-20T01:23:50;97080.84;;;5.52;100.00
70968;BME280;58629;48.808;8.820;2023-12-20T01:26:16;97092.81;;;5.53;100.00
70968;BME280;58629;48.808;8.820;2023-12-20T01:28:42;97081.22;;;5.58;100.00
70968;BME280;58629;48.808;8.820;2023-12-20T01:31:08;97079.31;;;5.55;100.00
70968;BME280;58629;48.808;8.820;2023-12-20T01:33:33;97082.69;;;5.55;100.00
70968;BME280;58629;48.808;8.820;2023-12-20T01:35:58;97072.56;;;5.57;100.00
70968;BME280;58629;48.808;8.820;2023-12-20T01:38:24;97067.69;;;5.56;100.00
70968;BME280;58629;48.808;8.820;2023-12-20T01:40:50;97061.31;;;5.50;100.00
70968;BME280;58629;48.808;8.820;2023-12-20T01:43:15;97065.06;;;5.45;100.00
70968;BME280;58629;48.808;8.820;2023-12-20T01:45:40;97058.69;;;5.43;100.00
70968;BME280;58629;48.808;8.820;2023-12-20T01:48:07;97080.44;;;5.40;100.00
70968;BME280;58629;48.808;8.820;2023-12-20T01:50:35;97075.56;;;5.38;100.00
70968;BME280;58629;48.808;8.820;2023-12-20T01:53:02;97068.78;;;5.30;100.00
70968;BME280;58629;48.808;8.820;2023-12-20T01:55:29;97067.66;;;5.31;100.00
70968;BME280;58629;48.808;8.820;2023-12-20T01:57:56;97067.28;;;5.25;100.00
70968;BME280;58629;48.808;8.820;2023-12-20T02:00:23;97063.16;;;5.24;100.00
70968;BME280;58629;48.808;8.820;2023-12-20T02:02:53;97068.75;;;5.19;100.00
70968;BME280;58629;48.808;8.820;2023-12-20T02:05:18;97080.38;;;5.15;100.00
70968;BME280;58629;48.808;8.820;2023-12-20T02:07:44;97067.63;;;5.13;100.00
70968;BME280;58629;48.808;8.820;2023-12-20T02:10:09;97081.13;;;5.19;100.00
70968;BME280;58629;48.808;8.820;2023-12-20T02:12:35;97072.47;;;5.11;100.00
70968;BME280;58629;48.808;8.820;2023-12-20T02:15:01;97080.34;;;5.08;100.00
70968;BME280;58629;48.808;8.820;2023-12-20T02:17:27;97078.88;;;5.07;100.00
70968;BME280;58629;48.808;8.820;2023-12-20T02:19:52;97072.84;;;5.03;100.00
70968;BME280;58629;48.808;8.820;2023-12-20T02:22:18;97084.47;;;4.98;100.00
70968;BME280;58629;48.808;8.820;2023-12-20T02:24:43;97084.84;;;5.00;100.00
70968;BME280;58629;48.808;8.820;2023-12-20T02:27:09;97080.69;;;4.96;100.00
70968;BME280;58629;48.808;8.820;2023-12-20T02:29:35;97081.78;;;4.91;100.00
70968;BME280;58629;48.808;8.820;2023-12-20T02:32:00;97087.03;;;4.88;100.00
70968;BME280;58629;48.808;8.820;2023-12-20T02:34:26;97084.03;;;4.86;100.00
70968;BME280;58629;48.808;8.820;2023-12-20T02:36:51;97097.50;;;4.81;100.00
70968;BME280;58629;48.808;8.820;2023-12-20T02:39:18;97087.34;;;4.76;100.00
70968;BME280;58629;48.808;8.820;2023-12-20T02:41:44;97095.22;;;4.72;100.00
70968;BME280;58629;48.808;8.820;2023-12-20T02:44:09;97094.06;;;4.66;100.00
70968;BME280;58629;48.808;8.820;2023-12-20T02:46:35;97090.66;;;4.62;100.00
70968;BME280;58629;48.808;8.820;2023-12-20T02:49:00;97089.91;;;4.58;100.00
70968;BME280;58629;48.808;8.820;2023-12-20T02:51:25;97093.63;;;4.54;100.00
70968;BME280;58629;48.808;8.820;2023-12-20T02:53:51;97089.50;;;4.53;100.00
70968;BME280;58629;48.808;8.820;2023-12-20T02:56:16;97091.38;;;4.52;100.00
70968;BME280;58629;48.808;8.820;2023-12-20T02:58:41;97090.22;;;4.46;100.00
70968;BME280;58629;48.808;8.820;2023-12-20T03:01:07;97098.47;;;4.48;100.00
70968;BME280;58629;48.808;8.820;2023-12-20T03:03:32;97098.44;;;4.45;100.00
70968;BME280;58629;48.808;8.820;2023-12-20T03:05:58;97099.16;;;4.38;100.00
70968;BME280;58629;48.808;8.820;2023-12-20T03:08:23;97095.41;;;4.35;100.00
70968;BME280;58629;48.808;8.820;2023-12-20T03:10:49;97110.38;;;4.35;100.00
70968;BME280;58629;48.808;8.820;2023-12-20T03:13:15;97108.84;;;4.27;100.00
70968;BME280;58629;48.808;8.820;2023-12-20T03:15:40;97121.56;;;4.28;100.00
70968;BME280;58629;48.808;8.820;2023-12-20T03:18:05;97127.97;;;4.31;100.00
70968;BME280;58629;48.808;8.820;2023-12-20T03:20:31;97122.31;;;4.29;100.00
70968;BME280;58629;48.808;8.820;2023-12-20T03:23:02;97124.16;;;4.25;100.00
70968;BME280;58629;48.808;8.820;2023-12-20T03:25:27;97122.25;;;4.22;100.00
70968;BME280;58629;48.808;8.820;2023-12-20T03:27:53;97132.34;;;4.20;100.00
70968;BME280;58629;48.808;8.820;2023-12-20T03:30:18;97121.50;;;4.18;100.00
70968;BME280;58629;48.808;8.820;2023-12-20T03:32:44;97118.84;;;4.14;100.00
70968;BME280;58629;48.808;8.820;2023-12-20T03:35:10;97117.34;;;4.13;100.00
70968;BME280;58629;48.808;8.820;2023-12-20T03:37:36;97124.06;;;4.11;100.00
70968;BME280;58629;48.808;8.820;2023-12-20T03:40:02;97125.94;;;4.10;100.00
70968;BME280;58629;48.808;8.820;2023-12-20T03:42:27;97125.19;;;4.10;100.00
70968;BME280;58629;48.808;8.820;2023-12-20T03:44:52;97126.66;;;4.07;100.00
70968;BME280;58629;48.808;8.820;2023-12-20T03:47:18;97122.53;;;4.06;100.00
70968;BME280;58629;48.808;8.820;2023-12-20T03:49:43;97124.41;;;4.06;100.00
70968;BME280;58629;48.808;8.820;2023-12-20T03:52:08;97125.16;;;4.06;100.00
70968;BME280;58629;48.808;8.820;2023-12-20T03:54:37;97121.41;;;4.04;100.00
70968;BME280;58629;48.808;8.820;2023-12-20T03:57:03;97120.66;;;4.03;100.00
70968;BME280;58629;48.808;8.820;2023-12-20T03:59:28;97123.28;;;4.03;100.00
70968;BME280;58629;48.808;8.820;2023-12-20T04:01:53;97115.78;;;4.02;100.00
70968;BME280;58629;48.808;8.820;2023-12-20T04:04:19;97127.34;;;4.01;100.00
70968;BME280;58629;48.808;8.820;2023-12-20T04:06:44;97125.47;;;3.98;100.00
70968;BME280;58629;48.808;8.820;2023-12-20T04:09:10;97110.84;;;3.97;100.00
70968;BME280;58629;48.808;8.820;2023-12-20T04:11:36;97130.72;;;3.98;100.00
70968;BME280;58629;48.808;8.820;2023-12-20T04:14:01;97132.94;;;3.96;100.00
70968;BME280;58629;48.808;8.820;2023-12-20T04:16:27;97140.81;;;3.96;100.00
70968;BME280;58629;48.808;8.820;2023-12-20T04:18:52;97144.91;;;3.97;100.00
70968;BME280;58629;48.808;8.820;2023-12-20T04:21:17;97141.53;;;3.96;100.00
70968;BME280;58629;48.808;8.820;2023-12-20T04:23:43;97137.41;;;3.95;100.00
70968;BME280;58629;48.808;8.820;2023-12-20T04:26:08;97140.81;;;3.96;100.00
70968;BME280;58629;48.808;8.820;2023-12-20T04:28:34;97126.94;;;3.95;100.00
70968;BME280;58629;48.808;8.820;2023-12-20T04:30:59;97131.81;;;3.97;100.00
70968;BME280;58629;48.808;8.820;2023-12-20T04:33:24;97151.22;;;3.92;100.00
70968;BME280;58629;48.808;8.820;2023-12-20T04:35:50;97152.34;;;3.91;100.00
70968;BME280;58629;48.808;8.820;2023-12-20T04:38:16;97155.34;;;3.90;100.00
70968;BME280;58629;48.808;8.820;2023-12-20T04:40:42;97153.47;;;3.90;100.00
70968;BME280;58629;48.808;8.820;2023-12-20T04:43:07;97151.59;;;3.91;100.00
70968;BME280;58629;48.808;8.820;2023-12-20T04:45:34;97144.13;;;3.93;100.00
70968;BME280;58629;48.808;8.820;2023-12-20T04:47:59;97155.38;;;3.93;100.00
70968;BME280;58629;48.808;8.820;2023-12-20T04:50:24;97154.25;;;3.94;100.00
70968;BME280;58629;48.808;8.820;2023-12-20T04:52:50;97147.91;;;3.95;100.00
70968;BME280;58629;48.808;8.820;2023-12-20T04:55:16;97159.88;;;3.96;100.00
70968;BME280;58629;48.808;8.820;2023-12-20T04:57:41;97158.78;;;3.97;100.00
70968;BME280;58629;48.808;8.820;2023-12-20T05:00:08;97171.53;;;4.02;100.00
70968;BME280;58629;48.808;8.820;2023-12-20T05:02:35;97169.31;;;4.04;100.00
70968;BME280;58629;48.808;8.820;2023-12-20T05:05:00;97174.25;;;4.13;100.00
70968;BME280;58629;48.808;8.820;2023-12-20T05:07:25;97167.16;;;4.13;100.00
70968;BME280;58629;48.808;8.820;2023-12-20T05:09:51;97177.66;;;4.17;100.00
70968;BME280;58629;48.808;8.820;2023-12-20T05:12:16;97186.28;;;4.17;100.00
70968;BME280;58629;48.808;8.820;2023-12-20T05:14:42;97176.91;;;4.20;100.00
70968;BME280;58629;48.808;8.820;2023-12-20T05:17:07;97176.56;;;4.21;100.00
70968;BME280;58629;48.808;8.820;2023-12-20T05:19:32;97182.19;;;4.23;100.00
70968;BME280;58629;48.808;8.820;2023-12-20T05:22:01;97187.84;;;4.25;100.00
70968;BME280;58629;48.808;8.820;2023-12-20T05:24:26;97185.56;;;4.24;100.00
70968;BME280;58629;48.808;8.820;2023-12-20T05:26:51;97187.06;;;4.25;100.00
70968;BME280;58629;48.808;8.820;2023-12-20T05:29:17;97193.81;;;4.26;100.00
70968;BME280;58629;48.808;8.820;2023-12-20T05:31:43;97200.94;;;4.25;100.00
70968;BME280;58629;48.808;8.820;2023-12-20T05:34:08;97200.19;;;4.28;100.00
70968;BME280;58629;48.808;8.820;2023-12-20T05:36:33;97205.84;;;4.30;100.00
70968;BME280;58629;48.808;8.820;2023-12-20T05:38:59;97208.09;;;4.32;100.00
70968;BME280;58629;48.808;8.820;2023-12-20T05:41:24;97209.97;;;4.31;100.00
70968;BME280;58629;48.808;8.820;2023-12-20T05:43:49;97212.59;;;4.31;100.00
70968;BME280;58629;48.808;8.820;2023-12-20T05:46:15;97217.84;;;4.31;100.00
70968;BME280;58629;48.808;8.820;2023-12-20T05:48:40;97216.34;;;4.34;100.00
70968;BME280;58629;48.808;8.820;2023-12-20T05:51:05;97217.84;;;4.31;100.00
70968;BME280;58629;48.808;8.820;2023-12-20T05:53:31;97218.19;;;4.30;100.00
70968;BME280;58629;48.808;8.820;2023-12-20T05:55:56;97221.56;;;4.30;100.00
70968;BME280;58629;48.808;8.820;2023-12-20T05:58:21;97240.28;;;4.29;100.00
70968;BME280;58629;48.808;8.820;2023-12-20T06:00:47;97250.41;;;4.30;100.00
70968;BME280;58629;48.808;8.820;2023-12-20T06:03:14;97255.28;;;4.32;100.00
70968;BME280;58629;48.808;8.820;2023-12-20T06:05:39;97258.66;;;4.32;100.00
70968;BME280;58629;48.808;8.820;2023-12-20T06:08:05;97251.56;;;4.33;100.00
70968;BME280;58629;48.808;8.820;2023-12-20T06:10:31;97249.63;;;4.30;100.00
70968;BME280;58629;48.808;8.820;2023-12-20T06:12:56;97251.19;;;4.34;100.00
70968;BME280;58629;48.808;8.820;2023-12-20T06:15:23;97249.03;;;4.44;100.00
70968;BME280;58629;48.808;8.820;2023-12-20T06:17:49;97246.06;;;4.49;100.00
70968;BME280;58629;48.808;8.820;2023-12-20T06:20:15;97244.72;;;4.69;100.00
70968;BME280;58629;48.808;8.820;2023-12-20T06:22:40;97256.19;;;4.50;100.00
70968;BME280;58629;48.808;8.820;2023-12-20T06:25:05;97251.03;;;4.61;100.00
70968;BME280;58629;48.808;8.820;2023-12-20T06:27:32;97254.34;;;4.54;100.00
70968;BME280;58629;48.808;8.820;2023-12-20T06:29:57;97264.41;;;4.49;100.00
70968;BME280;58629;48.808;8.820;2023-12-20T06:32:24;97266.25;;;4.45;100.00
70968;BME280;58629;48.808;8.820;2023-12-20T06:34:50;97255.75;;;4.41;100.00
70968;BME280;58629;48.808;8.820;2023-12-20T06:37:15;97260.22;;;4.40;100.00
70968;BME280;58629;48.808;8.820;2023-12-20T06:39:41;97260.59;;;4.39;100.00
70968;BME280;58629;48.808;8.820;2023-12-20T06:42:06;97263.22;;;4.39;100.00
70968;BME280;58629;48.808;8.820;2023-12-20T06:44:31;97263.59;;;4.37;100.00
70968;BME280;58629;48.808;8.820;2023-12-20T06:46:57;97270.31;;;4.38;100.00
70968;BME280;58629;48.808;8.820;2023-12-20T06:49:23;97282.28;;;4.36;100.00
70968;BME280;58629;48.808;8.820;2023-12-20T06:51:48;97281.88;;;4.34;100.00
70968;BME280;58629;48.808;8.820;2023-12-20T06:54:14;97299.50;;;4.33;100.00
70968;BME280;58629;48.808;8.820;2023-12-20T06:56:39;97302.16;;;4.37;100.00
70968;BME280;58629;48.808;8.820;2023-12-20T06:59:04;97293.88;;;4.35;100.00
70968;BME280;58629;48.808;8.820;2023-12-20T07:01:30;97301.38;;;4.33;100.00
70968;BME280;58629;48.808;8.820;2023-12-20T07:03:55;97288.66;;;4.35;100.00
70968;BME280;58629;48.808;8.820;2023-12-20T07:06:20;97299.09;;;4.31;100.00
70968;BME280;58629;48.808;8.820;2023-12-20T07:08:46;97311.06;;;4.29;100.00
70968;BME280;58629;48.808;8.820;2023-12-20T07:11:11;97318.50;;;4.23;100.00
70968;BME280;58629;48.808;8.820;2023-12-20T07:13:37;97328.19;;;4.19;100.00
70968;BME280;58629;48.808;8.820;2023-12-20T07:16:02;97338.59;;;4.12;100.00
70968;BME280;58629;48.808;8.820;2023-12-20T07:18:28;97332.94;;;4.10;100.00
70968;BME280;58629;48.808;8.820;2023-12-20T07:20:53;97335.53;;;4.07;100.00
70968;BME280;58629;48.808;8.820;2023-12-20T07:23:19;97342.59;;;4.03;100.00
70968;BME280;58629;48.808;8.820;2023-12-20T07:25:45;97346.00;;;4.03;100.00
70968;BME280;58629;48.808;8.820;2023-12-20T07:28:10;97355.31;;;4.01;100.00
70968;BME280;58629;48.808;8.820;2023-12-20T07:30:36;97346.69;;;4.00;100.00
70968;BME280;58629;48.808;8.820;2023-12-20T07:33:01;97353.75;;;3.96;100.00
70968;BME280;58629;48.808;8.820;2023-12-20T07:35:27;97338.75;;;3.93;100.00
70968;BME280;58629;48.808;8.820;2023-12-20T07:37:53;97346.22;;;3.91;100.00
70968;BME280;58629;48.808;8.820;2023-12-20T07:40:18;97351.41;;;3.88;100.00
70968;BME280;58629;48.808;8.820;2023-12-20T07:42:44;97354.41;;;3.86;100.00
70968;BME280;58629;48.808;8.820;2023-12-20T07:45:09;97357.03;;;3.86;100.00
70968;BME280;58629;48.808;8.820;2023-12-20T07:47:35;97350.25;;;3.85;100.00
70968;BME280;58629;48.808;8.820;2023-12-20T07:50:01;97357.34;;;3.85;100.00
70968;BME280;58629;48.808;8.820;2023-12-20T07:52:28;97361.50;;;3.86;100.00
70968;BME280;58629;48.808;8.820;2023-12-20T07:54:54;97358.91;;;3.89;100.00
70968;BME280;58629;48.808;8.820;2023-12-20T07:57:19;97360.00;;;3.88;100.00
70968;BME280;58629;48.808;8.820;2023-12-20T07:59:44;97366.78;;;3.89;100.00
70968;BME280;58629;48.808;8.820;2023-12-20T08:02:10;97363.75;;;3.87;100.00
70968;BME280;58629;48.808;8.820;2023-12-20T08:04:35;97374.25;;;3.87;100.00
70968;BME280;58629;48.808;8.820;2023-12-20T08:07:00;97376.84;;;3.87;100.00
70968;BME280;58629;48.808;8.820;2023-12-20T08:09:26;97378.31;;;3.85;100.00
70968;BME280;58629;48.808;8.820;2023-12-20T08:11:51;97386.09;;;3.78;100.00
70968;BME280;58629;48.808;8.820;2023-12-20T08:14:17;97389.13;;;3.80;100.00
70968;BME280;58629;48.808;8.820;2023-12-20T08:16:42;97386.09;;;3.78;100.00
70968;BME280;58629;48.808;8.820;2023-12-20T08:19:07;97396.56;;;3.78;100.00
70968;BME280;58629;48.808;8.820;2023-12-20T08:21:33;97392.84;;;3.79;100.00
70968;BME280;58629;48.808;8.820;2023-12-20T08:23:59;97385.03;;;3.82;100.00
70968;BME280;58629;48.808;8.820;2023-12-20T08:26:26;97393.59;;;3.79;100.00
70968;BME280;58629;48.808;8.820;2023-12-20T08:28:51;97395.53;;;3.82;100.00
70968;BME280;58629;48.808;8.820;2023-12-20T08:31:17;97392.50;;;3.80;100.00
70968;BME280;58629;48.808;8.820;2023-12-20T08:33:47;97395.44;;;3.79;100.00
70968;BME280;58629;48.808;8.820;2023-12-20T08:36:13;97397.75;;;3.80;100.00
70968;BME280;58629;48.808;8.820;2023-12-20T08:38:39;97399.97;;;3.78;100.00
70968;BME280;58629;48.808;8.820;2023-12-20T08:41:05;97404.78;;;3.76;100.00
70968;BME280;58629;48.808;8.820;2023-12-20T08:43:31;97400.28;;;3.77;100.00
70968;BME280;58629;48.808;8.820;2023-12-20T08:45:56;97403.66;;;3.77;100.00
70968;BME280;58629;48.808;8.820;2023-12-20T08:48:22;97404.78;;;3.76;100.00
70968;BME280;58629;48.808;8.820;2023-12-20T08:50:47;97408.22;;;3.80;100.00
70968;BME280;58629;48.808;8.820;2023-12-20T08:53:15;97406.28;;;3.77;100.00
70968;BME280;58629;48.808;8.820;2023-12-20T08:55:41;97401.06;;;3.77;100.00
70968;BME280;58629;48.808;8.820;2023-12-20T08:58:07;97392.91;;;3.82;100.00
70968;BME280;58629;48.808;8.820;2023-12-20T09:00:33;97392.13;;;3.82;100.00
70968;BME280;58629;48.808;8.820;2023-12-20T09:02:59;97401.50;;;3.83;100.00
70968;BME280;58629;48.808;8.820;2023-12-20T09:05:25;97397.00;;;3.83;100.00
70968;BME280;58629;48.808;8.820;2023-12-20T09:07:50;97397.41;;;3.85;100.00
70968;BME280;58629;48.808;8.820;2023-12-20T09:10:15;97390.69;;;3.84;100.00
70968;BME280;58629;48.808;8.820;2023-12-20T09:12:41;97393.34;;;3.88;100.00
70968;BME280;58629;48.808;8.820;2023-12-20T09:15:08;97391.44;;;3.88;100.00
70968;BME280;58629;48.808;8.820;2023-12-20T09:17:33;97392.31;;;3.96;100.00
70968;BME280;58629;48.808;8.820;2023-12-20T09:19:59;97382.16;;;3.94;100.00
70968;BME280;58629;48.808;8.820;2023-12-20T09:22:25;97382.25;;;3.98;100.00
70968;BME280;58629;48.808;8.820;2023-12-20T09:24:50;97375.56;;;4.04;100.00
70968;BME280;58629;48.808;8.820;2023-12-20T09:27:16;97383.84;;;4.06;100.00
70968;BME280;58629;48.808;8.820;2023-12-20T09:29:41;97383.09;;;4.09;100.00
70968;BME280;58629;48.808;8.820;2023-12-20T09:32:07;97388.75;;;4.11;100.00
70968;BME280;58629;48.808;8.820;2023-12-20T09:34:33;97389.91;;;4.13;100.00
70968;BME280;58629;48.808;8.820;2023-12-20T09:36:58;97391.47;;;4.18;100.00
70968;BME280;58629;48.808;8.820;2023-12-20T09:39:24;97385.53;;;4.24;100.00
70968;BME280;58629;48.808;8.820;2023-12-20T09:44:19;97388.19;;;4.28;100.00
70968;BME280;58629;48.808;8.820;2023-12-20T09:46:49;97396.41;;;4.26;99.51
70968;BME280;58629;48.808;8.820;2023-12-20T09:49:17;97397.53;;;4.25;100.00
70968;BME280;58629;48.808;8.820;2023-12-20T09:51:45;97399.31;;;4.18;100.00
70968;BME280;58629;48.808;8.820;2023-12-20T09:54:16;97391.31;;;4.07;100.00
70968;BME280;58629;48.808;8.820;2023-12-20T09:56:41;97402.59;;;4.11;100.00
70968;BME280;58629;48.808;8.820;2023-12-20T09:59:07;97404.56;;;4.18;100.00
70968;BME280;58629;48.808;8.820;2023-12-20T10:01:34;97404.75;;;4.35;100.00
70968;BME280;58629;48.808;8.820;2023-12-20T10:04:00;97406.06;;;4.56;100.00
70968;BME280;58629;48.808;8.820;2023-12-20T10:06:28;97410.63;;;4.59;100.00
70968;BME280;58629;48.808;8.820;2023-12-20T10:08:54;97398.19;;;4.52;100.00
70968;BME280;58629;48.808;8.820;2023-12-20T10:11:19;97388.31;;;4.38;100.00
70968;BME280;58629;48.808;8.820;2023-12-20T10:13:47;97395.38;;;4.34;100.00
70968;BME280;58629;48.808;8.820;2023-12-20T10:16:13;97388.66;;;4.37;100.00
70968;BME280;58629;48.808;8.820;2023-12-20T10:18:39;97382.00;;;4.43;100.00
70968;BME280;58629;48.808;8.820;2023-12-20T10:21:06;97386.09;;;4.44;100.00
70968;BME280;58629;48.808;8.820;2023-12-20T10:23:31;97385.38;;;4.44;100.00
70968;BME280;58629;48.808;8.820;2023-12-20T10:25:58;97370.81;;;4.50;100.00
70968;BME280;58629;48.808;8.820;2023-12-20T10:28:23;97373.91;;;4.59;100.00
70968;BME280;58629;48.808;8.820;2023-12-20T10:30:55;97364.16;;;4.59;100.00
70968;BME280;58629;48.808;8.820;2023-12-20T10:33:25;97366.00;;;4.55;99.74
70968;BME280;58629;48.808;8.820;2023-12-20T10:35:52;97360.66;;;4.45;99.56
70968;BME280;58629;48.808;8.820;2023-12-20T10:38:17;97366.22;;;4.39;99.57
70968;BME280;58629;48.808;8.820;2023-12-20T10:40:45;97358.00;;;4.41;100.00
70968;BME280;58629;48.808;8.820;2023-12-20T10:43:11;97354.31;;;4.46;100.00
70968;BME280;58629;48.808;8.820;2023-12-20T10:45:37;97352.38;;;4.43;99.04
70968;BME280;58629;48.808;8.820;2023-12-20T10:48:02;97353.28;;;4.57;100.00
70968;BME280;58629;48.808;8.820;2023-12-20T10:50:29;97362.00;;;4.72;100.00
70968;BME280;58629;48.808;8.820;2023-12-20T10:52:55;97350.28;;;4.59;99.96
70968;BME280;58629;48.808;8.820;2023-12-20T10:55:24;97351.34;;;4.51;100.00
70968;BME280;58629;48.808;8.820;2023-12-20T10:58:00;97346.91;;;4.58;100.00
70968;BME280;58629;48.808;8.820;2023-12-20T11:00:26;97345.84;;;4.66;100.00
70968;BME280;58629;48.808;8.820;2023-12-20T11:02:53;97360.53;;;4.71;100.00
70968;BME280;58629;48.808;8.820;2023-12-20T11:08:00;97348.78;;;4.58;98.81
70968;BME280;58629;48.808;8.820;2023-12-20T11:10:40;97346.84;;;4.48;98.17
70968;BME280;58629;48.808;8.820;2023-12-20T11:13:22;97343.31;;;4.33;98.44
70968;BME280;58629;48.808;8.820;2023-12-20T11:15:49;97339.47;;;4.23;99.28
70968;BME280;58629;48.808;8.820;2023-12-20T11:18:14;97339.06;;;4.21;96.24
70968;BME280;58629;48.808;8.820;2023-12-20T11:20:41;97333.13;;;4.28;98.26
70968;BME280;58629;48.808;8.820;2023-12-20T11:23:08;97336.91;;;4.30;97.46
70968;BME280;58629;48.808;8.820;2023-12-20T11:25:53;97328.66;;;4.28;97.93
70968;BME280;58629;48.808;8.820;2023-12-20T11:28:23;97327.19;;;4.31;96.56
70968;BME280;58629;48.808;8.820;2023-12-20T11:30:54;97336.53;;;4.32;94.73
70968;BME280;58629;48.808;8.820;2023-12-20T11:33:35;97329.47;;;4.36;94.72
70968;BME280;58629;48.808;8.820;2023-12-20T11:36:01;97331.69;;;4.34;97.04
70968;BME280;58629;48.808;8.820;2023-12-20T11:38:35;97332.44;;;4.31;96.33
70968;BME280;58629;48.808;8.820;2023-12-20T11:41:00;97334.28;;;4.30;94.31
70968;BME280;58629;48.808;8.820;2023-12-20T11:43:39;97329.41;;;4.29;92.64
70968;BME280;58629;48.808;8.820;2023-12-20T11:46:08;97335.84;;;4.35;94.73
70968;BME280;58629;48.808;8.820;2023-12-20T11:48:36;97326.53;;;4.41;94.74
70968;BME280;58629;48.808;8.820;2023-12-20T11:51:02;97322.44;;;4.44;95.32
70968;BME280;58629;48.808;8.820;2023-12-20T11:53:29;97309.72;;;4.46;94.11
70968;BME280;58629;48.808;8.820;2023-12-20T11:55:56;97312.69;;;4.44;93.72
70968;BME280;58629;48.808;8.820;2023-12-20T11:58:21;97317.63;;;4.53;94.01
70968;BME280;58629;48.808;8.820;2023-12-20T12:00:49;97306.41;;;4.52;92.50
70968;BME280;58629;48.808;8.820;2023-12-20T12:03:15;97300.03;;;4.50;93.62
70968;BME280;58629;48.808;8.820;2023-12-20T12:05:41;97321.69;;;4.43;91.35
70968;BME280;58629;48.808;8.820;2023-12-20T12:08:06;97313.06;;;4.43;92.48
70968;BME280;58629;48.808;8.820;2023-12-20T12:10:32;97309.13;;;4.63;92.63
70968;BME280;58629;48.808;8.820;2023-12-20T12:12:58;97311.28;;;4.54;92.22
70968;BME280;58629;48.808;8.820;2023-12-20T12:15:24;97308.25;;;4.52;91.68
70968;BME280;58629;48.808;8.820;2023-12-20T12:17:54;97312.00;;;4.51;92.02
70968;BME280;58629;48.808;8.820;2023-12-20T12:20:20;97315.03;;;4.53;92.47
70968;BME280;58629;48.808;8.820;2023-12-20T12:22:46;97312.91;;;4.69;92.53
70968;BME280;58629;48.808;8.820;2023-12-20T12:25:16;97320.03;;;4.68;90.51
70968;BME280;58629;48.808;8.820;2023-12-20T12:27:42;97303.84;;;4.59;91.57
70968;BME280;58629;48.808;8.820;2023-12-20T12:30:08;97303.78;;;4.52;92.87
70968;BME280;58629;48.808;8.820;2023-12-20T12:32:34;97311.66;;;4.56;91.83
70968;BME280;58629;48.808;8.820;2023-12-20T12:35:00;97303.78;;;4.52;93.24
70968;BME280;58629;48.808;8.820;2023-12-20T12:37:28;97304.19;;;4.58;93.42
70968;BME280;58629;48.808;8.820;2023-12-20T12:39:53;97307.97;;;4.64;92.42
70968;BME280;58629;48.808;8.820;2023-12-20T12:42:20;97307.19;;;4.56;94.31
70968;BME280;58629;48.808;8.820;2023-12-20T12:44:46;97306.31;;;4.42;92.70
70968;BME280;58629;48.808;8.820;2023-12-20T12:47:12;97304.81;;;4.44;92.85
70968;BME280;58629;48.808;8.820;2023-12-20T12:49:37;97303.63;;;4.38;93.74
70968;BME280;58629;48.808;8.820;2023-12-20T12:52:03;97298.44;;;4.42;95.15
70968;BME280;58629;48.808;8.820;2023-12-20T12:54:28;97303.63;;;4.38;94.22
70968;BME280;58629;48.808;8.820;2023-12-20T12:56:54;97298.84;;;4.44;94.40
70968;BME280;58629;48.808;8.820;2023-12-20T12:59:19;97301.88;;;4.49;94.93
70968;BME280;58629;48.808;8.820;2023-12-20T13:01:45;97295.13;;;4.52;93.41